Time;durP1;ratioP1;P1;durP2;ratioP2;P2;SDS_P1;SDS_P2;PMS_P1;PMS_P2;Temp;Humidity;BMP_temperature;BMP_pressure;BME280_temperature;BME280_humidity;BME280_pressure;Samples;Min_cycle;Max_cycle;Signal;HPM_P1;HPM_P2
2021/03/16 00:01:10;;;;;;;40.50;24.85;;;3.30;93.30;;;;;;5095176;28;20087;-77
2021/03/16 00:03:35;;;;;;;41.60;24.92;;;3.30;93.40;;;;;;5095401;28;20028;-77
2021/03/16 00:06:03;;;;;;;41.38;24.25;;;3.30;93.30;;;;;;5096646;28;20020;-77
2021/03/16 00:08:29;;;;;;;38.97;22.30;;;3.30;93.30;;;;;;5095694;28;20039;-77
2021/03/16 00:10:55;;;;;;;41.60;23.27;;;3.30;93.20;;;;;;5095775;28;20020;-77
2021/03/16 00:13:20;;;;;;;40.50;22.63;;;3.20;92.80;;;;;;5095277;28;20035;-77
2021/03/16 00:15:46;;;;;;;32.50;19.88;;;3.20;93.00;;;;;;5095297;28;20058;-77
2021/03/16 00:18:15;;;;;;;33.67;20.90;;;3.20;93.00;;;;;;5096619;28;20028;-77
2021/03/16 00:20:42;;;;;;;44.55;25.83;;;3.20;93.30;;;;;;5095158;28;20031;-77
2021/03/16 00:23:09;;;;;;;31.70;20.63;;;3.20;93.00;;;;;;5095144;28;20024;-76
2021/03/16 00:25:35;;;;;;;40.28;22.88;;;3.30;93.00;;;;;;5095623;28;20413;-77
2021/03/16 00:28:00;;;;;;;35.20;20.90;;;3.20;92.70;;;;;;5095051;28;20524;-77
2021/03/16 00:30:26;;;;;;;34.05;19.45;;;3.20;92.90;;;;;;5096397;28;20028;-77
2021/03/16 00:32:52;;;;;;;38.17;22.10;;;3.20;92.90;;;;;;5096304;28;20077;-77
2021/03/16 00:35:18;;;;;;;42.72;21.77;;;3.20;92.90;;;;;;5096074;28;20470;-77
2021/03/16 00:37:43;;;;;;;40.95;22.20;;;3.10;92.90;;;;;;5096365;28;20099;-77
2021/03/16 00:40:10;;;;;;;42.05;22.52;;;3.10;92.80;;;;;;5096059;28;20035;-77
2021/03/16 00:42:37;;;;;;;40.97;21.92;;;3.10;92.90;;;;;;5096389;28;20373;-76
2021/03/16 00:45:05;;;;;;;37.08;20.95;;;3.10;92.90;;;;;;5095912;28;20111;-76
2021/03/16 00:47:30;;;;;;;33.45;21.23;;;3.00;92.90;;;;;;5094904;28;20454;-77
2021/03/16 00:49:56;;;;;;;39.50;20.88;;;3.10;92.90;;;;;;5095846;28;20036;-77
2021/03/16 00:52:22;;;;;;;36.83;19.85;;;3.00;92.90;;;;;;5095760;28;20035;-76
2021/03/16 00:54:48;;;;;;;39.45;21.48;;;3.00;92.90;;;;;;5094614;28;20024;-77
2021/03/16 00:57:13;;;;;;;34.30;20.98;;;3.00;92.90;;;;;;5094055;28;20024;-77
2021/03/16 00:59:39;;;;;;;32.63;20.00;;;3.00;92.80;;;;;;5093790;28;20047;-77
2021/03/16 01:02:05;;;;;;;35.63;20.65;;;3.00;92.90;;;;;;5094315;28;20494;-77
2021/03/16 01:04:31;;;;;;;39.40;20.35;;;2.90;92.90;;;;;;5095457;28;20412;-78
2021/03/16 01:06:57;;;;;;;32.10;20.27;;;3.00;92.90;;;;;;5095470;28;20020;-77
2021/03/16 01:09:22;;;;;;;35.83;21.35;;;2.90;92.90;;;;;;5095539;28;20020;-78
2021/03/16 01:11:48;;;;;;;40.05;20.65;;;2.90;92.70;;;;;;5095271;28;20027;-76
2021/03/16 01:14:14;;;;;;;35.28;20.73;;;3.00;92.90;;;;;;5094082;28;20035;-76
2021/03/16 01:16:39;;;;;;;36.83;21.45;;;2.90;92.90;;;;;;5094061;28;20024;-76
2021/03/16 01:19:05;;;;;;;39.45;21.38;;;2.90;92.80;;;;;;5095357;28;20081;-76
2021/03/16 01:21:31;;;;;;;39.63;21.40;;;2.90;92.90;;;;;;5095266;28;20024;-76
2021/03/16 01:23:56;;;;;;;35.63;21.65;;;2.90;92.90;;;;;;5094222;28;20058;-76
2021/03/16 01:26:22;;;;;;;35.17;20.55;;;2.80;92.90;;;;;;5093265;28;20106;-76
2021/03/16 01:28:48;;;;;;;35.22;19.85;;;2.90;93.00;;;;;;5093182;28;20371;-76
2021/03/16 01:31:13;;;;;;;36.58;21.73;;;2.80;93.00;;;;;;5094578;28;20055;-76
2021/03/16 01:33:39;;;;;;;39.58;23.10;;;2.80;92.80;;;;;;5094906;28;20077;-76
2021/03/16 01:36:05;;;;;;;35.30;21.67;;;2.80;93.00;;;;;;5093440;28;20030;-76
2021/03/16 01:38:31;;;;;;;44.13;23.20;;;2.80;93.00;;;;;;5094931;28;20099;-76
2021/03/16 01:40:56;;;;;;;37.88;20.92;;;2.80;93.00;;;;;;5094774;28;20103;-76
2021/03/16 01:43:29;;;;;;;42.25;22.30;;;2.80;93.00;;;;;;5094691;28;20027;-76
2021/03/16 01:45:55;;;;;;;42.30;23.65;;;2.80;93.00;;;;;;5093724;28;20382;-76
2021/03/16 01:48:30;;;;;;;39.90;21.40;;;2.80;93.00;;;;;;5094754;28;20020;-76
2021/03/16 01:50:56;;;;;;;40.55;23.55;;;2.80;93.00;;;;;;5094659;28;20027;-76
2021/03/16 01:53:22;;;;;;;39.40;23.10;;;2.80;93.00;;;;;;5094522;28;20051;-76
2021/03/16 01:55:51;;;;;;;37.90;22.17;;;2.70;93.00;;;;;;5094593;28;20385;-76
2021/03/16 01:58:17;;;;;;;45.60;24.40;;;2.80;93.00;;;;;;5094445;28;20066;-76
2021/03/16 02:00:43;;;;;;;42.90;23.38;;;2.80;92.90;;;;;;5094014;28;20060;-76
2021/03/16 02:03:10;;;;;;;40.42;23.30;;;2.80;93.00;;;;;;5093995;28;20058;-76
2021/03/16 02:05:37;;;;;;;39.88;21.90;;;2.80;93.10;;;;;;5093133;28;20016;-76
2021/03/16 02:08:27;;;;;;;43.17;24.17;;;2.80;93.00;;;;;;5094696;28;20016;-76
2021/03/16 02:11:04;;;;;;;46.72;23.65;;;2.80;93.00;;;;;;5092492;28;20073;-76
2021/03/16 02:14:00;;;;;;;41.40;23.08;;;2.80;93.00;;;;;;5094248;28;20075;-76
2021/03/16 02:16:36;;;;;;;38.03;20.95;;;2.80;92.90;;;;;;5093028;28;20115;-76
2021/03/16 02:19:10;;;;;;;41.33;23.65;;;2.80;93.00;;;;;;5093141;28;20059;-76
2021/03/16 02:21:38;;;;;;;39.72;23.35;;;2.80;93.10;;;;;;5093982;28;20020;-76
2021/03/16 02:24:08;;;;;;;37.13;21.40;;;2.80;93.10;;;;;;5094071;28;20024;-76
2021/03/16 02:26:42;;;;;;;39.08;22.02;;;2.80;93.10;;;;;;5092801;28;20042;-76
2021/03/16 02:29:25;;;;;;;46.13;22.98;;;2.80;93.10;;;;;;5094137;28;20074;-76
2021/03/16 02:32:00;;;;;;;39.35;22.75;;;2.80;93.10;;;;;;5092658;28;20024;-76
2021/03/16 02:34:26;;;;;;;38.97;21.85;;;2.80;93.10;;;;;;5092450;28;20020;-76
2021/03/16 02:36:53;;;;;;;43.13;23.23;;;2.80;93.10;;;;;;5094092;28;20028;-76
2021/03/16 02:39:21;;;;;;;45.50;24.00;;;2.80;93.20;;;;;;5093923;28;20070;-76
2021/03/16 02:41:50;;;;;;;43.33;22.73;;;2.90;93.20;;;;;;5092552;28;20032;-77
2021/03/16 02:44:16;;;;;;;42.10;23.17;;;2.90;93.20;;;;;;5092350;28;20024;-76
2021/03/16 02:46:44;;;;;;;41.95;23.83;;;2.80;93.00;;;;;;5092298;28;20076;-77
2021/03/16 02:49:15;;;;;;;38.15;22.90;;;2.90;93.20;;;;;;5092227;28;20042;-76
2021/03/16 02:51:42;;;;;;;39.33;22.83;;;2.90;93.20;;;;;;5093810;28;20027;-77
2021/03/16 02:54:09;;;;;;;37.92;21.42;;;2.90;93.20;;;;;;5093238;28;20028;-77
2021/03/16 02:56:35;;;;;;;37.95;21.85;;;2.90;93.20;;;;;;5092180;28;20053;-77
2021/03/16 02:59:04;;;;;;;42.75;22.27;;;3.00;93.10;;;;;;5092570;28;20031;-77
2021/03/16 03:01:34;;;;;;;32.97;19.98;;;3.00;93.10;;;;;;5091905;28;20443;-76
2021/03/16 03:04:01;;;;;;;43.90;22.02;;;3.00;93.10;;;;;;5093171;28;20031;-76
2021/03/16 03:06:28;;;;;;;45.70;23.30;;;3.00;93.10;;;;;;5093238;28;20380;-76
2021/03/16 03:08:55;;;;;;;40.42;20.77;;;3.00;93.00;;;;;;5093317;28;20054;-76
2021/03/16 03:11:21;;;;;;;37.67;21.27;;;3.00;93.10;;;;;;5093732;28;20082;-76
2021/03/16 03:13:46;;;;;;;36.20;21.08;;;3.00;93.10;;;;;;5093337;28;20028;-77
2021/03/16 03:16:12;;;;;;;40.80;21.10;;;2.90;93.10;;;;;;5091888;28;20093;-76
2021/03/16 03:18:38;;;;;;;34.25;20.92;;;2.90;93.20;;;;;;5092059;28;20110;-77
2021/03/16 03:21:14;;;;;;;40.58;22.45;;;2.80;93.20;;;;;;5092111;28;20028;-76
2021/03/16 03:23:55;;;;;;;39.22;23.30;;;2.70;93.30;;;;;;5096133;28;20077;-77
2021/03/16 03:26:30;;;;;;;46.17;23.33;;;2.70;93.40;;;;;;5097547;28;20095;-76
2021/03/16 03:28:57;;;;;;;37.40;19.83;;;2.60;93.60;;;;;;5096964;28;20111;-77
2021/03/16 03:31:23;;;;;;;36.83;22.52;;;2.60;93.50;;;;;;5096937;28;20024;-77
2021/03/16 03:33:49;;;;;;;44.92;22.45;;;2.60;93.60;;;;;;5097063;28;20067;-77
2021/03/16 03:36:16;;;;;;;37.67;21.88;;;2.60;93.70;;;;;;5095848;28;20496;-77
2021/03/16 03:38:42;;;;;;;39.05;20.75;;;2.60;93.80;;;;;;5095764;28;20556;-76
2021/03/16 03:41:09;;;;;;;41.80;22.80;;;2.50;93.80;;;;;;5096059;28;20473;-76
2021/03/16 03:43:36;;;;;;;40.08;22.23;;;2.50;94.10;;;;;;5095843;28;20538;-76
2021/03/16 03:46:02;;;;;;;43.70;22.73;;;2.50;94.00;;;;;;5097250;28;20016;-76
2021/03/16 03:48:29;;;;;;;41.45;23.45;;;2.50;93.90;;;;;;5095617;28;20111;-76
2021/03/16 03:50:59;;;;;;;38.50;21.67;;;2.50;94.00;;;;;;5096949;28;20027;-77
2021/03/16 03:53:27;;;;;;;;;;;2.50;94.00;;;;;;5096148;28;20106;-77
2021/03/16 03:55:54;;;;;;;41.53;21.25;;;2.50;94.00;;;;;;5097080;28;19957;-77
2021/03/16 03:58:20;;;;;;;41.25;21.85;;;2.40;94.10;;;;;;5096902;28;20055;-77
2021/03/16 04:00:47;;;;;;;46.65;22.05;;;2.40;94.20;;;;;;5096643;28;20044;-76
2021/03/16 04:03:13;;;;;;;38.88;20.10;;;2.40;94.30;;;;;;5095276;28;20027;-76
2021/03/16 04:05:40;;;;;;;45.60;23.80;;;2.40;94.20;;;;;;5095546;28;20024;-77
2021/03/16 04:08:06;;;;;;;46.00;22.05;;;2.30;94.50;;;;;;5096873;28;20466;-76
2021/03/16 04:10:36;;;;;;;39.45;20.38;;;2.30;94.70;;;;;;5096682;28;20032;-77
2021/03/16 04:13:03;;;;;;;34.70;20.48;;;2.30;94.30;;;;;;5095397;28;20051;-77
2021/03/16 04:15:31;;;;;;;40.10;19.90;;;2.30;94.40;;;;;;5096552;28;20470;-76
2021/03/16 04:17:56;;;;;;;39.60;20.15;;;2.30;94.40;;;;;;5095156;28;20032;-77
2021/03/16 04:20:22;;;;;;;33.65;19.50;;;2.30;94.40;;;;;;5096406;28;20028;-76
2021/03/16 04:22:48;;;;;;;43.55;21.58;;;2.30;94.50;;;;;;5096496;28;20043;-76
2021/03/16 04:25:14;;;;;;;42.25;21.65;;;2.30;94.70;;;;;;5096413;28;20104;-77
2021/03/16 04:27:39;;;;;;;37.88;19.38;;;2.20;94.80;;;;;;5096212;28;20028;-77
2021/03/16 04:30:07;;;;;;;36.53;20.40;;;2.30;94.70;;;;;;5094887;28;20035;-76
2021/03/16 04:32:33;;;;;;;40.03;19.83;;;2.30;94.60;;;;;;5095841;28;20031;-77
2021/03/16 04:34:59;;;;;;;37.03;19.70;;;2.40;94.80;;;;;;5095064;28;20024;-76
2021/03/16 04:37:25;;;;;;;37.47;19.73;;;2.40;94.70;;;;;;5096307;28;20500;-77
2021/03/16 04:39:50;;;;;;;36.28;19.38;;;2.40;94.70;;;;;;5096108;28;20028;-77
2021/03/16 04:42:16;;;;;;;34.30;19.58;;;2.40;94.70;;;;;;5095917;28;20020;-77
2021/03/16 04:44:42;;;;;;;33.15;18.25;;;2.50;94.70;;;;;;5095899;28;20031;-77
2021/03/16 04:47:07;;;;;;;31.60;18.20;;;2.50;94.70;;;;;;5095842;28;20024;-78
2021/03/16 04:49:33;;;;;;;39.25;21.30;;;2.50;94.60;;;;;;5094731;28;20024;-77
2021/03/16 04:51:58;;;;;;;41.80;19.98;;;2.60;94.70;;;;;;5095680;28;20376;-76
2021/03/16 04:54:24;;;;;;;32.42;18.25;;;2.50;94.70;;;;;;5094718;28;20472;-77
2021/03/16 04:56:51;;;;;;;31.83;18.33;;;2.60;94.70;;;;;;5096197;28;20039;-77
2021/03/16 04:59:17;;;;;;;28.75;16.90;;;2.70;94.70;;;;;;5095399;28;20906;-77
2021/03/16 05:01:42;;;;;;;35.90;18.52;;;2.70;94.50;;;;;;5095148;28;20048;-77
2021/03/16 05:04:08;;;;;;;34.85;18.50;;;2.80;94.50;;;;;;5094256;28;20043;-76
2021/03/16 05:06:34;;;;;;;31.73;18.13;;;2.80;94.60;;;;;;5095403;28;20092;-76
2021/03/16 05:08:59;;;;;;;35.35;17.67;;;2.80;94.50;;;;;;5095488;28;20051;-76
2021/03/16 05:11:25;;;;;;;37.20;16.92;;;2.90;94.40;;;;;;5093679;28;20034;-77
2021/03/16 05:13:51;;;;;;;28.40;16.08;;;2.90;94.40;;;;;;5093950;28;20028;-77
2021/03/16 05:16:17;;;;;;;30.45;16.88;;;3.00;94.30;;;;;;5094221;28;20032;-77
2021/03/16 05:18:43;;;;;;;29.90;16.83;;;3.00;94.30;;;;;;5095365;28;20358;-76
2021/03/16 05:21:08;;;;;;;34.20;16.83;;;3.00;94.20;;;;;;5095247;28;20060;-77
2021/03/16 05:23:34;;;;;;;30.67;17.23;;;3.00;94.20;;;;;;5095732;28;20020;-77
2021/03/16 05:26:00;;;;;;;34.17;16.98;;;3.00;94.20;;;;;;5094934;28;20041;-77
2021/03/16 05:28:25;;;;;;;32.45;16.23;;;3.00;94.20;;;;;;5101739;28;20023;-78
2021/03/16 05:30:51;;;;;;;31.10;15.55;;;3.10;94.20;;;;;;5114077;28;20035;-78
2021/03/16 05:33:20;;;;;;;36.28;17.15;;;3.10;94.10;;;;;;5115727;28;20473;-77
2021/03/16 05:35:46;;;;;;;30.05;16.67;;;3.10;94.10;;;;;;5114144;28;20165;-78
2021/03/16 05:38:12;;;;;;;35.72;16.65;;;3.10;94.20;;;;;;5115119;27;20165;-77
2021/03/16 05:40:39;;;;;;;32.90;17.45;;;3.10;94.10;;;;;;5115233;28;20089;-78
2021/03/16 05:43:05;;;;;;;29.85;16.55;;;3.10;94.10;;;;;;5114241;28;20100;-78
2021/03/16 05:45:31;;;;;;;31.35;17.08;;;3.10;94.00;;;;;;5114969;27;20350;-78
2021/03/16 05:47:57;;;;;;;37.97;16.38;;;3.20;94.10;;;;;;5097545;28;20035;-78
2021/03/16 05:50:23;;;;;;;31.70;16.05;;;3.20;94.00;;;;;;5093608;28;20032;-78
2021/03/16 05:52:53;;;;;;;26.73;14.57;;;3.20;94.00;;;;;;5093888;28;20035;-77
2021/03/16 05:55:20;;;;;;;30.00;16.92;;;3.30;93.90;;;;;;5091443;28;20881;-78
2021/03/16 05:57:49;;;;;;;27.88;16.13;;;3.20;93.80;;;;;;5094704;28;20035;-78
2021/03/16 06:00:16;;;;;;;31.70;15.77;;;3.30;93.90;;;;;;5093185;28;20131;-78
2021/03/16 06:02:41;;;;;;;23.73;14.98;;;3.30;93.90;;;;;;5093509;28;20385;-78
2021/03/16 06:05:07;;;;;;;29.95;16.33;;;3.40;93.80;;;;;;5093375;28;20103;-78
2021/03/16 06:07:33;;;;;;;26.65;16.38;;;3.30;93.80;;;;;;5094234;28;20020;-77
2021/03/16 06:09:59;;;;;;;29.25;15.13;;;3.30;94.00;;;;;;5094458;28;20028;-78
2021/03/16 06:12:33;;;;;;;31.27;16.30;;;3.30;94.10;;;;;;5094462;28;20488;-78
2021/03/16 06:15:19;;;;;;;33.17;15.90;;;3.30;94.20;;;;;;5094526;28;20594;-79
2021/03/16 06:17:51;;;;;;;28.60;15.63;;;3.30;94.10;;;;;;5093019;28;20052;-77
2021/03/16 06:20:29;;;;;;;22.30;13.25;;;3.30;94.20;;;;;;5092875;28;20032;-82
2021/03/16 06:23:06;;;;;;;29.13;16.30;;;3.40;94.10;;;;;;5094247;28;20104;-84
2021/03/16 06:25:33;;;;;;;25.75;14.93;;;3.30;94.10;;;;;;5093011;28;20073;-83
2021/03/16 06:28:05;;;;;;;26.50;15.27;;;3.30;94.10;;;;;;5092886;28;20020;-83
2021/03/16 06:30:31;;;;;;;26.83;14.02;;;3.40;93.90;;;;;;5094243;28;20020;-83
2021/03/16 06:32:57;;;;;;;30.58;14.77;;;3.40;94.00;;;;;;5092923;28;20100;-83
2021/03/16 06:35:23;;;;;;;21.95;13.60;;;3.40;93.90;;;;;;5092796;28;20035;-83
2021/03/16 06:38:10;;;;;;;22.58;14.05;;;3.40;93.90;;;;;;5093934;28;20047;-82
2021/03/16 06:40:36;;;;;;;26.98;14.50;;;3.40;94.00;;;;;;5092673;28;20035;-83
2021/03/16 06:43:07;;;;;;;30.75;15.40;;;3.50;94.00;;;;;;5094035;28;20032;-82
2021/03/16 06:45:34;;;;;;;;;;;3.50;94.00;;;;;;5094377;28;20051;-82
2021/03/16 06:48:20;;;;;;;33.03;15.10;;;3.50;94.00;;;;;;5093811;28;19926;-83
2021/03/16 06:50:47;;;;;;;27.92;15.90;;;3.40;94.00;;;;;;5092520;28;20103;-83
2021/03/16 06:53:14;;;;;;;34.13;15.57;;;3.50;94.00;;;;;;5093832;28;20043;-82
2021/03/16 06:55:57;;;;;;;28.40;15.25;;;3.60;93.90;;;;;;5092359;28;20024;-82
2021/03/16 06:58:27;;;;;;;28.20;16.00;;;3.50;93.70;;;;;;5094039;28;20055;-83
2021/03/16 07:01:13;;;;;;;28.67;14.65;;;3.50;93.80;;;;;;5093541;28;20051;-83
2021/03/16 07:03:40;;;;;;;27.60;15.02;;;3.60;93.90;;;;;;5092483;28;20028;-82
2021/03/16 07:06:14;;;;;;;22.83;13.93;;;3.60;93.70;;;;;;5092487;28;20027;-82
2021/03/16 07:08:42;;;;;;;28.70;15.27;;;3.80;93.80;;;;;;5093754;28;20065;-83
2021/03/16 07:11:24;;;;;;;29.98;16.10;;;3.70;93.70;;;;;;5093881;28;20412;-76
2021/03/16 07:13:50;;;;;;;26.08;14.20;;;3.70;93.60;;;;;;5092223;28;20020;-76
2021/03/16 07:16:16;;;;;;;23.30;14.82;;;3.70;93.70;;;;;;5092322;28;20028;-76
2021/03/16 07:18:44;;;;;;;32.65;16.15;;;3.80;93.60;;;;;;5092128;28;20032;-77
2021/03/16 07:21:26;;;;;;;22.95;13.65;;;3.70;93.60;;;;;;5093557;28;20071;-77
2021/03/16 07:24:01;;;;;;;26.48;15.25;;;3.80;93.50;;;;;;5092323;28;20052;-77
2021/03/16 07:26:28;;;;;;;31.20;14.98;;;3.90;93.60;;;;;;5093434;28;20505;-77
2021/03/16 07:28:55;;;;;;;31.63;17.17;;;3.90;93.60;;;;;;5093395;28;20020;-77
2021/03/16 07:31:22;;;;;;;30.70;16.55;;;4.00;93.60;;;;;;5093334;28;20024;-77
2021/03/16 07:33:48;;;;;;;32.75;17.25;;;3.90;93.80;;;;;;5093413;28;20111;-77
2021/03/16 07:36:14;;;;;;;26.73;15.60;;;3.90;93.60;;;;;;5093293;28;20071;-76
2021/03/16 07:38:40;;;;;;;26.42;15.70;;;4.00;93.60;;;;;;5092239;28;20048;-76
2021/03/16 07:41:08;;;;;;;31.20;15.48;;;4.00;93.50;;;;;;5093306;28;20028;-76
2021/03/16 07:43:37;;;;;;;25.55;14.98;;;4.10;93.50;;;;;;5092988;28;20436;-77
2021/03/16 07:46:15;;;;;;;27.85;16.15;;;4.20;93.30;;;;;;5093418;28;20048;-77
2021/03/16 07:48:44;;;;;;;25.13;13.82;;;4.30;93.10;;;;;;5093375;28;20080;-77
2021/03/16 07:51:21;;;;;;;28.77;15.48;;;4.30;93.10;;;;;;5092116;28;20028;-77
2021/03/16 07:54:13;;;;;;;28.60;15.02;;;4.30;92.70;;;;;;5093422;28;20097;-77
2021/03/16 07:56:41;;;;;;;24.40;14.45;;;4.30;92.80;;;;;;5089340;28;20107;-77
2021/03/16 07:59:08;;;;;;;27.33;15.27;;;4.30;93.00;;;;;;5093240;28;20028;-76
2021/03/16 08:01:48;;;;;;;23.25;14.10;;;4.30;93.00;;;;;;5092952;28;20040;-77
2021/03/16 08:04:14;;;;;;;25.05;13.57;;;4.40;92.90;;;;;;5091788;28;20020;-77
2021/03/16 08:06:41;;;;;;;24.50;14.13;;;4.40;92.90;;;;;;5093213;28;20530;-77
2021/03/16 08:09:22;;;;;;;23.13;13.93;;;4.50;92.80;;;;;;5094779;28;20354;-76
2021/03/16 08:11:48;;;;;;;21.05;13.55;;;4.50;92.70;;;;;;5095947;28;20028;-76
2021/03/16 08:14:30;;;;;;;24.27;14.75;;;4.40;92.70;;;;;;5095123;28;20028;-76
2021/03/16 08:16:56;;;;;;;23.02;13.98;;;4.40;92.90;;;;;;5094727;28;20031;-76
2021/03/16 08:19:34;;;;;;;25.00;14.10;;;4.50;92.80;;;;;;5096517;28;20028;-76
2021/03/16 08:21:59;;;;;;;28.13;15.02;;;4.50;92.90;;;;;;5095007;28;20021;-76
2021/03/16 08:24:41;;;;;;;22.85;13.52;;;4.50;92.70;;;;;;5096111;28;20081;-76
2021/03/16 08:27:11;;;;;;;24.02;13.02;;;4.60;92.70;;;;;;5096392;28;20020;-76
2021/03/16 08:29:45;;;;;;;24.10;14.32;;;4.70;92.70;;;;;;5096251;28;20016;-76
2021/03/16 08:32:18;;;;;;;24.98;14.60;;;4.80;92.50;;;;;;5094907;28;20032;-76
2021/03/16 08:34:46;;;;;;;24.42;14.98;;;5.00;92.60;;;;;;5095585;28;20081;-76
2021/03/16 08:37:32;;;;;;;21.38;13.65;;;5.10;92.10;;;;;;5096133;28;20424;-76
2021/03/16 08:39:59;;;;;;;26.42;13.65;;;5.20;91.90;;;;;;5095425;28;20071;-76
2021/03/16 08:42:26;;;;;;;28.98;14.68;;;5.20;92.00;;;;;;5094898;28;20049;-76
2021/03/16 08:44:54;;;;;;;25.25;14.95;;;5.30;91.90;;;;;;5094966;28;20035;-76
2021/03/16 08:47:22;;;;;;;26.95;14.82;;;5.20;91.70;;;;;;5095856;28;20377;-77
2021/03/16 08:49:50;;;;;;;21.27;12.27;;;5.10;91.50;;;;;;5094685;28;20024;-77
2021/03/16 08:52:27;;;;;;;23.63;13.07;;;5.20;91.90;;;;;;5094220;28;20174;-77
2021/03/16 08:54:56;;;;;;;28.23;13.20;;;5.30;91.90;;;;;;5094498;28;20411;-77
2021/03/16 08:57:26;;;;;;;25.17;13.50;;;5.40;91.80;;;;;;5094658;28;20465;-77
2021/03/16 08:59:56;;;;;;;25.30;13.15;;;5.40;91.60;;;;;;5094273;28;20105;-77
2021/03/16 09:02:28;;;;;;;26.55;15.13;;;5.30;91.30;;;;;;5096026;28;20028;-77
2021/03/16 09:04:57;;;;;;;28.20;13.77;;;5.20;91.30;;;;;;5094595;28;20115;-77
2021/03/16 09:07:25;;;;;;;24.85;13.07;;;5.20;91.60;;;;;;5095790;28;20051;-77
2021/03/16 09:10:21;;;;;;;23.38;13.77;;;5.20;91.70;;;;;;5094727;28;20020;-77
2021/03/16 09:12:48;;;;;;;26.58;14.73;;;5.20;91.80;;;;;;5094275;28;20027;-77
2021/03/16 09:15:18;;;;;;;27.45;13.73;;;5.10;91.70;;;;;;5095560;28;20020;-77
2021/03/16 09:17:47;;;;;;;32.58;13.98;;;5.20;91.90;;;;;;5093979;28;20020;-77
2021/03/16 09:20:22;;;;;;;27.83;13.65;;;5.10;91.50;;;;;;5095168;28;20031;-77
2021/03/16 09:23:00;;;;;;;21.60;13.00;;;5.20;91.70;;;;;;5082460;28;20027;-77
2021/03/16 09:25:31;;;;;;;26.48;13.35;;;5.30;91.60;;;;;;5095269;28;20024;-77
2021/03/16 09:28:00;;;;;;;26.42;14.48;;;5.30;91.40;;;;;;5094200;28;20039;-77
2021/03/16 09:30:33;;;;;;;26.17;13.65;;;5.20;91.20;;;;;;5095192;28;20016;-77
2021/03/16 09:32:59;;;;;;;27.05;12.73;;;5.30;91.60;;;;;;5095193;28;20034;-77
2021/03/16 09:35:25;;;;;;;28.30;13.45;;;5.30;91.70;;;;;;5095200;28;20028;-77
2021/03/16 09:37:52;;;;;;;28.52;13.40;;;5.40;91.50;;;;;;5093856;28;20031;-77
2021/03/16 09:40:29;;;;;;;26.02;13.63;;;5.40;91.50;;;;;;5093749;28;20034;-77
2021/03/16 09:42:55;;;;;;;26.08;13.60;;;5.40;91.60;;;;;;5093810;28;20026;-77
2021/03/16 09:45:32;;;;;;;22.77;13.27;;;5.40;91.50;;;;;;5094914;28;20050;-77
2021/03/16 09:47:59;;;;;;;27.33;13.77;;;5.30;91.40;;;;;;5095073;28;20099;-77
2021/03/16 09:50:32;;;;;;;24.92;13.13;;;5.20;91.50;;;;;;5093636;28;20028;-77
2021/03/16 09:53:04;;;;;;;26.60;13.93;;;5.10;91.60;;;;;;5094912;28;20127;-77
2021/03/16 09:55:31;;;;;;;30.90;15.18;;;5.10;91.60;;;;;;5094526;28;20032;-77
2021/03/16 09:57:57;;;;;;;32.70;15.50;;;5.00;91.90;;;;;;5093606;28;20051;-77
2021/03/16 10:00:24;;;;;;;35.88;17.45;;;5.00;92.00;;;;;;5094393;28;20052;-77
2021/03/16 10:03:04;;;;;;;33.92;17.17;;;4.90;91.90;;;;;;5093435;28;20031;-77
2021/03/16 10:05:29;;;;;;;34.35;16.83;;;5.00;92.00;;;;;;5094870;28;20485;-77
2021/03/16 10:07:55;;;;;;;27.83;15.68;;;5.00;92.00;;;;;;5094221;28;20024;-77
2021/03/16 10:10:23;;;;;;;34.72;17.70;;;5.20;92.10;;;;;;5094451;28;20063;-77
2021/03/16 10:12:58;;;;;;;37.40;17.48;;;5.30;91.80;;;;;;5092748;28;20035;-77
2021/03/16 10:15:38;;;;;;;40.60;20.45;;;5.40;91.80;;;;;;5094329;28;20024;-77
2021/03/16 10:18:06;;;;;;;35.42;19.33;;;5.50;91.50;;;;;;5092927;28;20024;-77
2021/03/16 10:20:38;;;;;;;38.58;21.08;;;5.50;91.60;;;;;;5094148;28;20036;-77
2021/03/16 10:23:25;;;;;;;49.00;22.45;;;5.50;91.50;;;;;;5092913;28;20380;-77
2021/03/16 10:26:08;;;;;;;43.13;20.88;;;5.50;91.30;;;;;;5094095;28;20469;-78
2021/03/16 10:28:36;;;;;;;48.75;24.95;;;5.50;91.50;;;;;;5094151;28;20031;-78
2021/03/16 10:31:20;;;;;;;46.60;23.17;;;5.60;91.30;;;;;;5093738;28;20027;-78
2021/03/16 10:33:48;;;;;;;46.65;23.70;;;5.70;91.20;;;;;;5094210;28;20024;-77
2021/03/16 10:36:14;;;;;;;39.58;22.73;;;5.70;90.90;;;;;;5092796;28;20035;-78
2021/03/16 10:38:40;;;;;;;46.17;23.42;;;5.70;91.10;;;;;;5092685;28;20133;-78
2021/03/16 10:41:06;;;;;;;42.78;23.60;;;5.70;91.20;;;;;;5092478;28;20489;-78
2021/03/16 10:43:32;;;;;;;47.97;25.33;;;5.70;91.60;;;;;;5092666;28;20082;-77
2021/03/16 10:45:58;;;;;;;61.38;26.90;;;5.80;91.10;;;;;;5093847;28;20420;-78
2021/03/16 10:48:25;;;;;;;48.58;28.17;;;5.80;91.10;;;;;;5093731;28;20091;-77
2021/03/16 10:50:51;;;;;;;43.75;27.42;;;5.80;91.00;;;;;;5092456;28;20031;-78
2021/03/16 10:53:17;;;;;;;44.92;26.70;;;5.80;91.20;;;;;;5093907;28;20024;-78
2021/03/16 10:55:43;;;;;;;50.45;26.63;;;5.90;91.40;;;;;;5093444;28;20431;-77
2021/03/16 10:58:09;;;;;;;55.70;26.75;;;5.80;91.40;;;;;;5093533;28;20073;-78
2021/03/16 11:00:35;;;;;;;56.15;27.33;;;5.80;91.40;;;;;;5093478;28;20048;-78
2021/03/16 11:03:01;;;;;;;51.47;27.17;;;5.90;91.30;;;;;;5092512;28;20169;-78
2021/03/16 11:05:27;;;;;;;51.60;27.73;;;5.90;91.40;;;;;;5093634;28;20020;-77
2021/03/16 11:07:53;;;;;;;44.58;25.58;;;6.00;91.50;;;;;;5092117;28;20043;-77
2021/03/16 11:10:18;;;;;;;45.80;26.77;;;6.10;91.50;;;;;;5092064;28;20358;-78
2021/03/16 11:12:44;;;;;;;50.90;26.50;;;6.30;91.40;;;;;;5093475;28;20024;-79
2021/03/16 11:15:10;;;;;;;49.45;27.48;;;6.40;91.30;;;;;;5092189;28;20093;-78
2021/03/16 11:17:36;;;;;;;51.20;27.35;;;6.50;91.20;;;;;;5093377;28;20039;-78
2021/03/16 11:20:02;;;;;;;48.78;28.55;;;6.50;90.70;;;;;;5091631;28;20031;-78
2021/03/16 11:22:28;;;;;;;52.75;27.13;;;6.50;90.90;;;;;;5092905;28;20472;-77
2021/03/16 11:24:53;;;;;;;48.35;28.13;;;6.60;91.00;;;;;;5093355;28;20100;-77
2021/03/16 11:27:19;;;;;;;41.97;25.92;;;6.60;91.00;;;;;;5092940;28;20027;-78
2021/03/16 11:29:45;;;;;;;59.22;29.52;;;6.70;91.00;;;;;;5091588;28;20050;-78
2021/03/16 11:32:10;;;;;;;51.55;27.35;;;6.60;90.80;;;;;;5092991;28;20071;-77
2021/03/16 11:34:36;;;;;;;49.40;27.50;;;6.70;90.90;;;;;;5093165;28;20020;-78
2021/03/16 11:37:02;;;;;;;58.95;27.30;;;6.60;90.70;;;;;;5093036;28;20028;-78
2021/03/16 11:39:28;;;;;;;49.83;27.52;;;6.60;91.00;;;;;;5093228;28;20043;-78
2021/03/16 11:41:53;;;;;;;50.85;25.75;;;6.60;91.10;;;;;;5088970;28;20475;-78
2021/03/16 11:44:19;;;;;;;39.60;24.10;;;6.70;91.20;;;;;;5074818;28;20025;-78
2021/03/16 11:46:45;;;;;;;51.95;26.23;;;6.70;91.10;;;;;;5075563;28;20017;-78
2021/03/16 11:49:11;;;;;;;49.95;25.15;;;6.70;91.00;;;;;;5080598;28;20025;-78
2021/03/16 11:51:36;;;;;;;40.58;24.13;;;6.80;91.00;;;;;;5076697;28;20024;-78
2021/03/16 11:54:03;;;;;;;54.35;24.55;;;6.90;91.00;;;;;;5088510;28;20031;-78
2021/03/16 11:56:31;;;;;;;47.92;23.95;;;6.90;90.80;;;;;;5095674;28;20487;-78
2021/03/16 11:58:57;;;;;;;48.90;24.60;;;7.00;90.90;;;;;;5095504;28;20024;-77
2021/03/16 12:01:23;;;;;;;43.97;24.15;;;7.00;90.70;;;;;;5086187;28;20067;-78
2021/03/16 12:03:48;;;;;;;49.70;25.35;;;7.10;91.00;;;;;;5083122;28;20519;-77
2021/03/16 12:06:14;;;;;;;46.03;25.33;;;7.10;90.50;;;;;;5096404;28;20355;-78
2021/03/16 12:08:40;;;;;;;49.72;23.83;;;7.00;90.70;;;;;;5096882;28;20077;-78
2021/03/16 12:11:06;;;;;;;48.55;24.48;;;7.20;90.80;;;;;;5093524;28;20437;-78
2021/03/16 12:13:32;;;;;;;48.13;25.40;;;7.30;90.80;;;;;;5090348;28;20036;-78
2021/03/16 12:15:58;;;;;;;56.42;29.15;;;7.30;90.60;;;;;;5095445;28;20214;-78
2021/03/16 12:18:25;;;;;;;49.55;26.65;;;7.40;90.30;;;;;;5096538;28;20035;-78
2021/03/16 12:20:51;;;;;;;59.08;30.02;;;7.50;90.50;;;;;;5096513;28;20354;-78
2021/03/16 12:23:17;;;;;;;62.60;31.10;;;7.50;90.00;;;;;;5095130;28;20024;-76
2021/03/16 12:25:44;;;;;;;64.75;32.60;;;7.40;89.70;;;;;;5078075;28;20027;-76
2021/03/16 12:28:10;;;;;;;60.65;30.80;;;7.40;89.20;;;;;;5075777;28;20028;-76
2021/03/16 12:30:36;;;;;;;65.45;32.33;;;7.50;90.10;;;;;;5095999;28;20039;-76
2021/03/16 12:33:03;;;;;;;59.83;32.13;;;7.50;89.90;;;;;;5096623;28;20034;-75
2021/03/16 12:35:29;;;;;;;66.03;33.60;;;7.60;89.90;;;;;;5096143;28;20497;-75
2021/03/16 12:37:55;;;;;;;76.15;34.60;;;7.70;89.90;;;;;;5096492;28;20107;-76
2021/03/16 12:40:20;;;;;;;73.22;37.35;;;7.60;89.50;;;;;;5096423;28;20020;-75
2021/03/16 12:42:46;;;;;;;57.83;31.50;;;7.60;88.00;;;;;;5095052;28;20110;-75
2021/03/16 12:45:12;;;;;;;55.92;31.83;;;7.70;89.50;;;;;;5096243;28;20491;-75